Time;durP1;ratioP1;P1;durP2;ratioP2;P2;SDS_P1;SDS_P2;PMS_P1;PMS_P2;Temp;Humidity;BMP_temperature;BMP_pressure;BME280_temperature;BME280_humidity;BME280_pressure;Samples;Min_cycle;Max_cycle;Signal;HPM_P1;HPM_P2
2023/11/10 00:02:12;;;;;;;0.80;0.70;;;;;;;7.11;67.00;98109.83;108310;1266;60053;-90
2023/11/10 00:04:39;;;;;;;1.70;0.90;;;;;;;7.10;66.84;98107.89;108171;1269;60459;-91
2023/11/10 00:07:07;;;;;;;1.50;0.90;;;;;;;7.10;66.79;98104.84;108558;1267;72863;-90
2023/11/10 00:09:34;;;;;;;1.20;0.80;;;;;;;7.10;66.53;98107.36;108682;1266;74472;-89
2023/11/10 00:12:02;;;;;;;2.60;1.10;;;;;;;7.10;66.20;98105.59;108580;1267;71859;-88
2023/11/10 00:14:29;;;;;;;0.90;0.70;;;;;;;7.09;66.28;98103.86;108401;1270;59201;-89
2023/11/10 00:17:09;;;;;;;1.90;0.90;;;;;;;7.08;66.14;98107.14;108383;1267;60343;-90
2023/11/10 00:19:43;;;;;;;2.80;1.20;;;;;;;7.07;66.03;98108.77;108632;1267;72599;-90
2023/11/10 00:22:10;;;;;;;1.40;1.00;;;;;;;7.06;65.83;98115.30;108665;1266;73140;-90
2023/11/10 00:24:38;;;;;;;1.80;0.90;;;;;;;7.04;65.74;98116.41;108517;1267;72505;-90
2023/11/10 00:27:10;;;;;;;2.50;1.80;;;;;;;7.02;65.78;98113.33;108242;1266;60378;-90
2023/11/10 00:29:41;;;;;;;1.50;1.00;;;;;;;7.01;65.65;98116.77;108474;1266;60114;-89
2023/11/10 00:32:09;;;;;;;1.10;0.80;;;;;;;7.02;65.49;98115.16;108198;1270;73857;-91
2023/11/10 00:34:36;;;;;;;2.70;1.60;;;;;;;7.02;65.53;98116.59;107907;1273;73206;-90
2023/11/10 00:37:04;;;;;;;3.20;1.60;;;;;;;7.02;65.62;98117.63;108322;1266;72458;-90
2023/11/10 00:39:31;;;;;;;1.90;1.50;;;;;;;7.01;65.65;98118.20;108138;1267;59585;-90
2023/11/10 00:42:00;;;;;;;2.60;1.80;;;;;;;7.00;65.43;98121.30;108332;1263;59228;-90
2023/11/10 00:44:27;;;;;;;1.60;1.20;;;;;;;6.99;65.46;98120.15;108390;1263;73659;-90
2023/11/10 00:46:54;;;;;;;1.70;1.10;;;;;;;6.97;65.41;98121.63;108549;1265;75597;-89
2023/11/10 00:49:22;;;;;;;6.20;1.40;;;;;;;6.97;65.58;98128.61;108516;1264;71185;-90
2023/11/10 00:51:49;;;;;;;3.70;1.70;;;;;;;6.96;65.79;98127.97;108430;1264;59478;-88
2023/11/10 00:54:16;;;;;;;1.80;1.10;;;;;;;6.93;66.26;98129.56;108516;1265;59129;-89
2023/11/10 00:56:44;;;;;;;2.10;1.10;;;;;;;6.90;66.59;98132.55;108599;1264;72378;-89
2023/11/10 00:59:11;;;;;;;2.90;1.50;;;;;;;6.85;66.93;98137.26;108369;1265;74339;-89
2023/11/10 01:01:39;;;;;;;2.20;1.20;;;;;;;6.80;67.22;98134.90;108376;1264;71979;-90
2023/11/10 01:04:06;;;;;;;2.20;1.20;;;;;;;6.75;67.46;98133.06;108599;1266;59390;-89
2023/11/10 01:06:34;;;;;;;1.90;1.10;;;;;;;6.69;67.74;98135.40;108533;1265;59330;-90
2023/11/10 01:09:01;;;;;;;3.20;1.20;;;;;;;6.63;67.87;98138.73;108792;1265;72539;-90
2023/11/10 01:11:29;;;;;;;2.20;1.10;;;;;;;6.59;67.95;98135.80;108817;1265;73642;-89
2023/11/10 01:13:56;;;;;;;3.60;1.60;;;;;;;6.53;68.32;98127.74;108619;1265;71492;-89
2023/11/10 01:16:24;;;;;;;2.50;1.40;;;;;;;6.48;68.50;98121.30;108603;1265;61021;-89
2023/11/10 01:18:52;;;;;;;3.60;1.20;;;;;;;6.42;68.69;98118.80;108711;1265;60245;-89
2023/11/10 01:21:19;;;;;;;5.00;1.70;;;;;;;6.38;68.93;98121.52;108680;1265;72569;-90
2023/11/10 01:23:46;;;;;;;2.20;1.50;;;;;;;6.33;69.18;98119.80;108721;1264;73058;-90
2023/11/10 01:26:15;;;;;;;1.40;1.10;;;;;;;6.28;69.48;98117.60;108648;1264;71559;-89
2023/11/10 01:28:43;;;;;;;1.60;1.00;;;;;;;6.24;69.55;98113.73;108785;1264;60180;-89
2023/11/10 01:31:10;;;;;;;1.90;1.20;;;;;;;6.20;69.67;98114.49;108718;1264;58839;-88
2023/11/10 01:33:38;;;;;;;2.90;1.50;;;;;;;6.18;69.96;98118.56;108455;1264;72959;-90
2023/11/10 01:36:06;;;;;;;2.00;1.40;;;;;;;6.14;70.22;98122.65;108410;1263;73330;-91
2023/11/10 01:38:37;;;;;;;1.60;1.20;;;;;;;6.13;70.58;98120.06;108386;1264;73725;-90
2023/11/10 01:41:04;;;;;;;2.00;1.40;;;;;;;6.10;70.85;98118.57;108394;1264;60081;-91
2023/11/10 01:43:32;;;;;;;2.10;1.20;;;;;;;6.07;70.97;98115.92;108382;1268;59344;-89
2023/11/10 01:46:00;;;;;;;4.60;1.30;;;;;;;6.04;71.13;98111.28;108468;1264;73969;-91
2023/11/10 01:48:28;;;;;;;4.80;2.20;;;;;;;6.01;71.58;98117.68;108521;1264;72994;-89
2023/11/10 01:51:01;;;;;;;4.30;1.60;;;;;;;5.98;71.94;98119.09;108493;1264;72399;-90
2023/11/10 01:53:30;;;;;;;2.70;1.30;;;;;;;5.95;72.15;98120.14;108433;1264;61535;-90
2023/11/10 01:56:00;;;;;;;4.80;1.30;;;;;;;5.91;72.53;98124.05;108625;1264;58931;-88
2023/11/10 01:58:30;;;;;;;1.60;1.30;;;;;;;5.89;72.61;98121.70;108482;1264;72437;-89
2023/11/10 02:01:01;;;;;;;1.90;1.60;;;;;;;5.86;73.06;98116.73;108651;1263;74235;-89
2023/11/10 02:03:29;;;;;;;2.70;1.20;;;;;;;5.83;73.40;98113.51;108434;1264;71887;-90
2023/11/10 02:05:57;;;;;;;4.70;2.20;;;;;;;5.78;73.53;98111.05;108529;1264;60093;-89
2023/11/10 02:08:25;;;;;;;4.00;3.50;;;;;;;5.75;73.83;98107.52;108699;1264;60478;-90
2023/11/10 02:10:53;;;;;;;6.30;4.80;;;;;;;5.72;73.81;98102.36;108750;1264;72707;-89
2023/11/10 02:13:24;;;;;;;4.80;3.70;;;;;;;5.68;73.78;98101.48;108320;1267;74587;-90
2023/11/10 02:15:51;;;;;;;5.50;4.50;;;;;;;5.63;74.06;98100.70;108357;1265;72171;-90
2023/11/10 02:18:34;;;;;;;6.80;4.90;;;;;;;5.59;74.18;98097.70;108694;1265;59922;-89
2023/11/10 02:21:04;;;;;;;5.80;4.60;;;;;;;5.55;74.27;98096.89;108605;1265;58779;-90
2023/11/10 02:23:37;;;;;;;6.40;5.10;;;;;;;5.50;74.57;98092.21;108739;1265;72662;-90
2023/11/10 02:26:07;;;;;;;7.00;5.00;;;;;;;5.46;74.89;98095.44;108615;1265;73377;-89
2023/11/10 02:28:43;;;;;;;9.00;7.00;;;;;;;5.41;75.34;98099.76;108588;1267;70635;-89
2023/11/10 02:31:20;;;;;;;10.80;8.70;;;;;;;5.36;75.59;98096.61;108642;1265;60088;-89
2023/11/10 02:33:55;;;;;;;13.00;10.20;;;;;;;5.34;75.68;98099.06;108561;1265;59294;-90
2023/11/10 02:36:36;;;;;;;15.80;12.70;;;;;;;5.31;75.66;98093.70;108735;1265;72678;-89
2023/11/10 02:39:09;;;;;;;14.00;12.50;;;;;;;5.27;75.68;98083.77;108705;1265;73640;-91
2023/11/10 02:41:42;;;;;;;20.50;15.70;;;;;;;5.24;75.82;98090.17;108651;1265;71595;-89
2023/11/10 02:44:18;;;;;;;34.10;22.00;;;;;;;5.21;75.99;98091.92;108606;1265;60027;-90
2023/11/10 02:46:51;;;;;;;23.30;17.30;;;;;;;5.18;75.99;98090.48;108582;1265;59439;-90
2023/11/10 02:49:18;;;;;;;17.70;14.00;;;;;;;5.14;76.22;98093.36;108542;1265;72557;-90
2023/11/10 02:51:45;;;;;;;17.10;12.70;;;;;;;5.10;76.52;98091.08;108563;1265;75511;-89
2023/11/10 02:54:13;;;;;;;19.90;13.00;;;;;;;5.06;76.90;98091.45;108544;1264;72615;-90
2023/11/10 02:56:41;;;;;;;15.10;12.20;;;;;;;5.02;77.05;98091.14;108554;1265;60091;-89
2023/11/10 02:59:19;;;;;;;18.10;11.70;;;;;;;4.99;77.44;98090.77;108425;1264;60163;-89
2023/11/10 03:01:48;;;;;;;14.40;12.50;;;;;;;4.96;77.82;98090.91;108509;1265;72876;-90
2023/11/10 03:04:27;;;;;;;19.20;13.50;;;;;;;4.94;77.99;98089.95;108454;1265;74408;-91
2023/11/10 03:06:57;;;;;;;17.80;13.00;;;;;;;4.92;78.07;98090.98;108245;1264;71614;-90
2023/11/10 03:09:25;;;;;;;16.30;13.40;;;;;;;4.90;78.31;98089.80;108485;1265;61176;-89
2023/11/10 03:11:55;;;;;;;18.40;13.50;;;;;;;4.87;78.48;98086.39;108421;1264;59460;-89
2023/11/10 03:14:32;;;;;;;28.20;17.00;;;;;;;4.86;78.46;98080.63;108388;1264;73342;-90
2023/11/10 03:17:09;;;;;;;20.40;13.80;;;;;;;4.83;78.65;98072.61;108334;1264;73208;-90
2023/11/10 03:19:37;;;;;;;29.50;17.40;;;;;;;4.81;78.76;98071.66;108359;1264;70586;-89
2023/11/10 03:22:05;;;;;;;21.20;15.00;;;;;;;4.76;78.49;98063.89;108543;1263;59639;-88
2023/11/10 03:24:36;;;;;;;21.80;14.90;;;;;;;4.71;78.68;98068.40;108411;1264;60318;-90
2023/11/10 03:27:04;;;;;;;27.10;16.40;;;;;;;4.68;78.92;98072.98;108395;1264;73752;-90
2023/11/10 03:29:36;;;;;;;17.40;11.90;;;;;;;4.64;79.03;98068.94;108408;1265;74541;-91
2023/11/10 03:32:05;;;;;;;14.00;9.60;;;;;;;4.58;79.09;98063.90;108292;1264;70270;-91
2023/11/10 03:34:41;;;;;;;11.30;8.70;;;;;;;4.54;79.50;98063.40;108334;1266;60118;-90
2023/11/10 03:37:09;;;;;;;8.40;5.30;;;;;;;4.52;79.89;98065.46;108138;1264;59456;-90
2023/11/10 03:39:36;;;;;;;4.80;3.60;;;;;;;4.52;78.78;98063.86;108313;1264;73484;-90
2023/11/10 03:42:04;;;;;;;6.20;3.40;;;;;;;4.53;77.69;98061.34;108579;1264;73724;-88
2023/11/10 03:44:31;;;;;;;6.10;3.30;;;;;;;4.56;77.09;98058.56;108632;1265;71467;-90
2023/11/10 03:47:01;;;;;;;5.30;2.40;;;;;;;4.58;76.56;98057.34;108639;1266;60269;-90
2023/11/10 03:49:29;;;;;;;4.20;2.50;;;;;;;4.62;76.03;98057.34;108783;1265;60236;-89
2023/11/10 03:51:56;;;;;;;3.70;2.80;;;;;;;4.65;75.84;98055.02;108716;1265;72732;-89
2023/11/10 03:54:23;;;;;;;3.70;2.70;;;;;;;4.69;75.78;98052.89;108689;1265;73292;-91
2023/11/10 03:56:50;;;;;;;4.60;3.10;;;;;;;4.73;75.43;98050.23;108794;1265;71873;-90
2023/11/10 03:59:18;;;;;;;4.70;2.70;;;;;;;4.76;75.03;98047.42;108543;1264;59711;-91
2023/11/10 04:01:45;;;;;;;4.60;2.80;;;;;;;4.77;74.67;98042.42;108362;1264;59594;-91
2023/11/10 04:04:12;;;;;;;6.40;2.80;;;;;;;4.78;74.50;98037.57;108430;1264;75112;-90
2023/11/10 04:06:39;;;;;;;4.30;2.70;;;;;;;4.77;74.22;98036.87;108569;1265;74303;-90
2023/11/10 04:09:10;;;;;;;4.70;2.70;;;;;;;4.78;73.95;98035.08;108388;1264;70962;-90
2023/11/10 04:11:37;;;;;;;4.90;3.10;;;;;;;4.78;73.94;98029.36;108322;1265;60496;-90
2023/11/10 04:14:05;;;;;;;3.70;2.50;;;;;;;4.79;73.73;98030.59;108261;1264;59271;-89
2023/11/10 04:16:33;;;;;;;4.10;2.30;;;;;;;4.79;73.57;98027.19;108248;1264;73870;-90
2023/11/10 04:19:00;;;;;;;3.20;2.40;;;;;;;4.80;73.69;98025.93;108392;1265;74615;-89
2023/11/10 04:21:27;;;;;;;3.90;2.40;;;;;;;4.80;73.63;98020.04;108289;1264;71151;-89
2023/11/10 04:23:57;;;;;;;6.00;3.40;;;;;;;4.81;73.54;98015.41;108446;1265;60096;-91
2023/11/10 04:26:24;;;;;;;5.50;4.00;;;;;;;4.82;73.37;98021.20;108447;1265;60143;-91
2023/11/10 04:28:51;;;;;;;4.30;3.70;;;;;;;4.82;73.42;98011.95;108804;1264;73186;-89
2023/11/10 04:31:19;;;;;;;9.00;6.90;;;;;;;4.83;73.42;98005.37;108817;1264;72868;-89
2023/11/10 04:33:46;;;;;;;6.50;4.20;;;;;;;4.83;73.49;97992.41;108712;1263;71765;-88
2023/11/10 04:36:14;;;;;;;5.80;3.10;;;;;;;4.82;73.46;98000.79;108489;1263;61364;-90
2023/11/10 04:38:43;;;;;;;2.70;2.40;;;;;;;4.81;73.23;98001.60;108628;1264;59355;-89
2023/11/10 04:42:39;;;;;;;4.10;2.60;;;;;;;4.81;73.57;97992.02;105823;1293;601100;-90
2023/11/10 04:45:08;;;;;;;2.50;2.00;;;;;;;4.77;73.41;97989.36;108339;1267;60220;-90
2023/11/10 04:47:40;;;;;;;3.30;2.60;;;;;;;4.75;73.30;97992.14;108221;1268;59246;-90
2023/11/10 04:50:12;;;;;;;2.80;2.30;;;;;;;4.72;73.28;97979.36;108247;1267;72534;-90
2023/11/10 04:52:41;;;;;;;4.90;2.70;;;;;;;4.68;73.32;97969.61;108044;1267;73152;-89
2023/11/10 04:55:11;;;;;;;3.60;2.50;;;;;;;4.63;73.67;97972.17;107719;1267;360085;-90
2023/11/10 04:57:38;;;;;;;3.30;3.00;;;;;;;4.56;73.65;97977.64;108531;1265;59086;-90
2023/11/10 05:03:57;;;;;;;3.40;3.00;;;;;;;4.42;74.35;97977.34;107144;1279;70625;-90
2023/11/10 05:06:30;;;;;;;6.30;2.80;;;;;;;4.38;74.37;97981.95;107043;1280;74883;-89
2023/11/10 05:08:57;;;;;;;3.90;2.80;;;;;;;4.36;74.58;97980.84;107200;1280;71579;-90
2023/11/10 05:11:24;;;;;;;4.70;2.90;;;;;;;4.32;74.55;97974.98;106953;1281;59903;-89
2023/11/10 05:13:52;;;;;;;4.50;3.10;;;;;;;4.30;74.67;97982.02;107119;1280;60916;-89
2023/11/10 05:16:19;;;;;;;7.10;3.70;;;;;;;4.28;74.68;97982.98;107102;1280;72612;-89
2023/11/10 05:18:47;;;;;;;3.90;3.40;;;;;;;4.26;74.60;97985.20;107662;1272;73574;-89
2023/11/10 05:21:31;;;;;;;5.30;3.20;;;;;;;4.25;74.63;97982.24;107992;1272;74243;-90
2023/11/10 05:24:02;;;;;;;6.50;4.90;;;;;;;4.25;74.89;97986.70;107965;1272;61272;-89
2023/11/10 05:26:36;;;;;;;6.40;4.10;;;;;;;4.25;75.04;97988.66;107719;1274;58831;-90
2023/11/10 05:29:08;;;;;;;6.40;5.20;;;;;;;4.24;74.94;97992.03;107760;1273;72314;-88
2023/11/10 05:31:36;;;;;;;8.20;5.60;;;;;;;4.24;74.97;97987.61;108166;1278;74416;-89
2023/11/10 05:34:04;;;;;;;14.20;5.60;;;;;;;4.24;75.01;97993.48;108073;1272;71355;-90
2023/11/10 05:36:31;;;;;;;6.40;5.00;;;;;;;4.23;74.96;97988.73;107943;1272;60849;-89
2023/11/10 05:38:58;;;;;;;6.90;4.90;;;;;;;4.22;75.05;97986.31;107969;1272;59091;-89
2023/11/10 05:41:25;;;;;;;5.40;3.50;;;;;;;4.20;75.11;97985.16;108015;1273;73237;-88
2023/11/10 05:44:08;;;;;;;5.50;3.20;;;;;;;4.19;75.35;97988.94;108240;1273;72942;-88
2023/11/10 05:46:41;;;;;;;7.70;3.80;;;;;;;4.19;75.42;97988.03;108112;1272;71491;-88
2023/11/10 05:49:08;;;;;;;6.40;3.70;;;;;;;4.19;75.41;97992.46;108058;1273;60119;-89
2023/11/10 05:54:31;;;;;;;14.80;5.40;;;;;;;4.21;75.71;98004.27;107653;1276;73131;-88
2023/11/10 05:56:59;;;;;;;6.20;5.10;;;;;;;4.21;75.77;98003.89;107401;1276;76730;-89
2023/11/10 05:59:30;;;;;;;8.80;4.70;;;;;;;4.21;75.99;98006.71;107513;1275;71711;-90
2023/11/10 06:02:02;;;;;;;4.50;4.10;;;;;;;4.22;76.24;98009.70;107392;1277;61156;-88
2023/11/10 06:04:32;;;;;;;8.20;5.40;;;;;;;4.23;76.24;98006.66;107480;1276;60181;-87
2023/11/10 06:07:02;;;;;;;7.70;5.00;;;;;;;4.23;76.59;98011.77;107380;1276;72850;-88
2023/11/10 06:09:31;;;;;;;7.00;5.20;;;;;;;4.23;76.54;98010.18;107487;1277;74494;-87
2023/11/10 06:11:58;;;;;;;8.20;4.10;;;;;;;4.23;76.63;98013.05;107560;1276;71581;-88
2023/11/10 06:14:31;;;;;;;6.10;3.70;;;;;;;4.23;76.70;98013.19;107863;1274;60224;-88
2023/11/10 06:17:27;;;;;;;7.00;4.00;;;;;;;4.25;77.02;98013.10;107577;1277;59290;-89
2023/11/10 06:20:11;;;;;;;4.80;3.50;;;;;;;4.26;77.31;98009.84;107761;1272;71790;-89
2023/11/10 06:24:09;;;;;;;3.80;3.20;;;;;;;4.29;77.29;98008.29;107869;1265;72566;31
2023/11/10 06:38:35;;;;;;;15.30;10.40;;;;;;;4.42;76.84;98004.27;106776;1285;72329;-88
2023/11/10 06:41:08;;;;;;;;;;;;;;;4.45;76.88;98001.48;106456;1286;73025;-90
2023/11/10 06:43:49;;;;;;;;;;;;;;;;;;;;;
2023/11/10 07:01:52;;;;;;;5.30;4.90;;;;;;;4.66;76.29;97999.65;104793;1283;71733;31
2023/11/10 07:08:25;;;;;;;11.80;6.20;;;;;;;4.76;75.87;98008.23;106716;1280;58835;31
2023/11/10 07:11:40;;;;;;;;;;;;;;;;;;;;;
2023/11/10 07:14:23;;;;;;;11.60;5.50;;;;;;;4.87;75.86;98002.87;106159;1288;75138;-91
2023/11/10 07:21:51;;;;;;;12.30;9.00;;;;;;;4.99;75.08;97999.38;106063;1293;59999;-95
2023/11/10 07:35:20;;;;;;;12.50;7.00;;;;;;;5.24;74.59;97986.17;106353;1285;74204;-96
2023/11/10 07:37:59;;;;;;;20.30;10.60;;;;;;;5.30;74.18;97980.30;106107;1286;73673;-95
2023/11/10 08:04:49;;;;;;;10.70;5.80;;;;;;;5.90;72.56;97948.75;90668;1284;59977;-93
2023/11/10 08:08:07;;;;;;;8.70;5.60;;;;;;;5.97;71.94;97948.70;105769;1291;71847;-89
2023/11/10 08:19:47;;;;;;;11.70;7.10;;;;;;;6.19;71.71;97942.17;105489;1296;59848;-91
2023/11/10 08:23:00;;;;;;;10.00;6.60;;;;;;;6.23;71.92;97943.70;105196;1296;59671;-93
2023/11/10 08:25:30;;;;;;;11.60;8.10;;;;;;;6.27;71.80;97941.09;104946;1300;71994;-88
2023/11/10 08:27:57;;;;;;;7.80;6.30;;;;;;;6.31;72.06;97942.84;104946;1300;72616;-88
2023/11/10 08:30:26;;;;;;;13.50;6.00;;;;;;;6.34;72.00;97938.54;105146;1300;72770;-87
2023/11/10 08:32:54;;;;;;;13.90;7.50;;;;;;;6.37;71.93;97933.59;105186;1300;60054;-87
2023/11/10 08:35:21;;;;;;;13.30;7.20;;;;;;;6.40;71.97;97938.93;105234;1303;60352;-88
2023/11/10 08:37:48;;;;;;;18.90;10.20;;;;;;;6.43;71.88;97939.11;105081;1298;73777;-88
2023/11/10 08:40:16;;;;;;;17.50;8.40;;;;;;;6.46;71.71;97937.67;105389;1300;74606;-88
2023/11/10 08:42:43;;;;;;;11.80;8.00;;;;;;;6.49;71.68;97934.44;105599;1297;73708;-88
2023/11/10 08:45:14;;;;;;;14.60;9.40;;;;;;;6.53;71.90;97935.11;105573;1295;60246;-87
2023/11/10 08:47:43;;;;;;;12.40;7.60;;;;;;;6.57;71.53;97935.98;105441;1297;59835;-89
2023/11/10 08:50:13;;;;;;;12.20;8.90;;;;;;;6.60;71.24;97932.36;105530;1296;74391;-88
2023/11/10 08:52:41;;;;;;;9.70;7.40;;;;;;;6.64;70.44;97924.86;105397;1300;73454;-89
2023/11/10 08:55:13;;;;;;;11.20;7.70;;;;;;;6.66;70.32;97920.09;105530;1296;72377;-89
2023/11/10 08:57:41;;;;;;;11.40;5.30;;;;;;;6.69;70.36;97917.24;105612;1291;61503;-87
2023/11/10 09:00:09;;;;;;;10.80;6.10;;;;;;;6.73;70.08;97920.39;105808;1292;60445;-87
2023/11/10 09:02:38;;;;;;;9.10;6.00;;;;;;;6.77;69.53;97929.37;106117;1286;73451;-86
2023/11/10 09:05:06;;;;;;;8.10;5.30;;;;;;;6.80;69.21;97926.56;106560;1285;72521;-85
2023/11/10 09:07:33;;;;;;;13.40;6.30;;;;;;;6.82;69.23;97924.42;106389;1284;72225;-86
2023/11/10 09:10:04;;;;;;;8.00;6.40;;;;;;;6.85;68.97;97922.83;106508;1285;61210;-88
2023/11/10 09:12:33;;;;;;;14.20;8.50;;;;;;;6.89;68.94;97919.61;106392;1285;60617;-87
2023/11/10 09:15:04;;;;;;;18.80;8.50;;;;;;;6.92;68.98;97915.89;106391;1285;72087;-86
2023/11/10 09:17:32;;;;;;;13.80;6.70;;;;;;;6.94;69.09;97914.45;106545;1284;74653;-87
2023/11/10 09:19:59;;;;;;;11.50;8.50;;;;;;;6.97;69.03;97920.66;106579;1286;73563;-87
2023/11/10 09:22:31;;;;;;;8.70;6.50;;;;;;;7.00;68.70;97914.42;106455;1285;60047;-87
2023/11/10 09:24:58;;;;;;;5.80;4.60;;;;;;;7.03;68.45;97911.80;106713;1286;59199;-87
2023/11/10 09:27:26;;;;;;;9.60;5.30;;;;;;;7.06;68.37;97910.15;106603;1285;73050;-87
2023/11/10 09:29:53;;;;;;;6.50;5.70;;;;;;;7.10;68.51;97907.62;106345;1285;75045;-84
2023/11/10 09:32:20;;;;;;;9.90;5.70;;;;;;;7.15;68.36;97906.54;106609;1285;72493;-88
2023/11/10 09:34:47;;;;;;;13.00;6.10;;;;;;;7.18;68.36;97901.00;106579;1284;59884;-90
2023/11/10 09:37:14;;;;;;;12.20;6.00;;;;;;;7.22;68.37;97902.15;106519;1285;59086;-89
2023/11/10 09:39:43;;;;;;;11.40;5.10;;;;;;;7.26;68.42;97895.02;106356;1285;75322;-88
2023/11/10 09:42:10;;;;;;;4.80;4.10;;;;;;;7.30;68.45;97889.61;106732;1285;73968;-87
2023/11/10 09:44:48;;;;;;;6.40;5.20;;;;;;;7.33;68.74;97887.77;106723;1283;71711;-86
2023/11/10 09:47:15;;;;;;;15.20;5.80;;;;;;;7.38;68.69;97882.15;106673;1285;61069;-88
2023/11/10 09:49:42;;;;;;;7.50;5.20;;;;;;;7.41;68.08;97877.88;106373;1285;60208;-88
2023/11/10 09:52:11;;;;;;;8.50;5.70;;;;;;;7.42;67.56;97875.46;106506;1285;75427;-87
2023/11/10 09:54:41;;;;;;;13.40;5.40;;;;;;;7.44;66.97;97868.41;106441;1284;74219;-87
2023/11/10 09:57:14;;;;;;;9.30;6.60;;;;;;;7.45;66.95;97866.88;106559;1285;71534;-89
2023/11/10 09:59:42;;;;;;;14.80;9.60;;;;;;;7.47;66.80;97859.46;106546;1284;59807;-89
2023/11/10 10:02:14;;;;;;;26.20;13.00;;;;;;;7.47;66.93;97856.59;106403;1286;60347;-90
2023/11/10 10:05:07;;;;;;;21.00;13.40;;;;;;;7.50;67.16;97846.96;106324;1285;72957;-88
2023/11/10 10:07:35;;;;;;;19.40;11.70;;;;;;;7.53;67.70;97846.92;106212;1284;74161;-91
2023/11/10 10:10:09;;;;;;;32.20;17.70;;;;;;;7.57;68.08;97845.81;106370;1283;72867;-91
2023/11/10 10:12:54;;;;;;;22.00;15.20;;;;;;;7.60;68.17;97835.77;106288;1289;60310;-91
2023/11/10 10:15:38;;;;;;;;;;;;;;;7.65;68.23;97829.05;106259;1284;61811;-92
2023/11/10 10:18:24;;;;;;;26.40;15.70;;;;;;;7.67;67.90;97825.71;106250;1283;73555;-91
2023/11/10 10:21:00;;;;;;;15.80;9.70;;;;;;;7.69;67.51;97826.65;106191;1285;74211;-90
2023/11/10 10:23:33;;;;;;;14.30;11.40;;;;;;;7.71;67.17;97817.23;106162;1283;73054;-90
2023/11/10 10:26:09;;;;;;;12.70;11.10;;;;;;;7.72;67.06;97809.67;106370;1285;60470;-92
2023/11/10 10:28:53;;;;;;;10.50;9.10;;;;;;;7.74;67.60;97803.33;106255;1285;60625;-90
2023/11/10 10:31:54;;;;;;;8.90;6.50;;;;;;;7.75;67.35;97802.17;106147;1285;73115;-91
2023/11/10 10:34:49;;;;;;;;;;;;;;;7.76;67.40;97795.36;106304;1285;73748;-92
2023/11/10 10:37:42;;;;;;;5.80;5.20;;;;;;;7.76;67.64;97794.67;106192;1288;73018;-90
2023/11/10 10:40:46;;;;;;;;;;;;;;;7.75;67.70;97794.13;105661;1290;59306;-91
2023/11/10 10:43:27;;;;;;;7.50;4.70;;;;;;;7.77;67.46;97793.84;105576;1296;60328;-91
2023/11/10 10:46:37;;;;;;;9.10;5.90;;;;;;;7.79;67.47;97785.90;105736;1294;74232;-89
2023/11/10 10:49:22;;;;;;;;;;;;;;;;;;;;;
2023/11/10 10:52:10;;;;;;;7.70;5.80;;;;;;;7.80;67.61;97780.98;105677;1290;74372;-90
2023/11/10 10:54:49;;;;;;;10.00;6.30;;;;;;;7.81;67.68;97781.15;105483;1291;61751;-90
2023/11/10 10:57:34;;;;;;;;;;;;;;;7.81;67.52;97779.89;105845;1285;59270;-91
2023/11/10 11:00:32;;;;;;;18.90;6.90;;;;;;;7.80;67.52;97770.33;106194;1285;73327;-90
2023/11/10 11:03:54;;;;;;;11.40;9.10;;;;;;;7.80;67.94;97768.72;105581;1291;75252;-91
2023/11/10 11:06:50;;;;;;;38.10;22.10;;;;;;;7.82;68.35;97766.99;105565;1291;73766;-88
2023/11/10 11:09:54;;;;;;;47.30;28.80;;;;;;;7.84;68.79;97763.81;105638;1291;61354;-90
2023/11/10 11:12:37;;;;;;;23.20;15.00;;;;;;;7.86;69.34;97758.48;105720;1291;59372;-90
2023/11/10 11:15:11;;;;;;;21.20;18.70;;;;;;;7.87;69.27;97754.30;105772;1291;75037;-89
2023/11/10 11:18:08;;;;;;;20.80;14.10;;;;;;;7.89;69.22;97755.61;105715;1292;75251;-91
2023/11/10 11:20:55;;;;;;;19.30;13.30;;;;;;;7.90;69.58;97748.05;105778;1291;73168;-91
2023/11/10 11:23:23;;;;;;;17.20;12.60;;;;;;;7.92;69.95;97745.80;105711;1291;60978;-87
2023/11/10 11:25:59;;;;;;;14.70;12.30;;;;;;;7.93;69.81;97739.83;105846;1291;59334;-88
2023/11/10 11:28:32;;;;;;;15.00;13.50;;;;;;;7.94;70.48;97739.04;105941;1296;72649;-87
2023/11/10 11:31:10;;;;;;;11.50;10.40;;;;;;;7.95;70.72;97741.98;106119;1291;73232;-87
2023/11/10 11:33:52;;;;;;;11.80;9.70;;;;;;;7.96;70.24;97738.03;105852;1291;71255;-87
2023/11/10 11:36:20;;;;;;;13.00;9.70;;;;;;;7.95;70.25;97735.92;105792;1291;61405;-89
2023/11/10 11:38:47;;;;;;;15.00;11.50;;;;;;;7.95;70.22;97734.53;105737;1292;60314;-88
2023/11/10 11:41:15;;;;;;;20.80;14.20;;;;;;;7.94;70.28;97740.09;106274;1285;73805;-88
2023/11/10 11:43:50;;;;;;;15.40;12.50;;;;;;;7.94;70.25;97741.00;106198;1285;74842;-87
2023/11/10 11:46:17;;;;;;;15.90;12.00;;;;;;;7.94;70.34;97744.58;106203;1286;71198;-88
2023/11/10 11:48:44;;;;;;;18.60;12.20;;;;;;;7.94;70.62;97741.57;106116;1286;59301;-88
2023/11/10 11:51:12;;;;;;;19.50;12.20;;;;;;;7.94;70.78;97741.56;106261;1285;60502;-87
2023/11/10 11:53:39;;;;;;;17.40;12.00;;;;;;;7.93;70.78;97738.73;106199;1286;72425;-87
2023/11/10 11:56:07;;;;;;;20.20;11.10;;;;;;;7.94;71.02;97738.16;106433;1286;73678;-88
2023/11/10 11:58:35;;;;;;;18.90;12.80;;;;;;;7.94;71.03;97735.47;106235;1286;71537;-89
2023/11/10 12:01:04;;;;;;;25.60;15.20;;;;;;;7.93;71.05;97736.59;106230;1286;60885;-90
2023/11/10 12:03:31;;;;;;;26.20;14.00;;;;;;;7.91;71.69;97733.31;106319;1286;59459;-89
2023/11/10 12:05:58;;;;;;;19.10;13.10;;;;;;;7.89;71.77;97729.40;106381;1285;72174;-89
2023/11/10 12:08:26;;;;;;;19.60;10.60;;;;;;;7.88;71.85;97730.77;106380;1285;73011;-86
2023/11/10 12:10:54;;;;;;;15.30;9.60;;;;;;;7.85;71.57;97728.80;106052;1286;72676;-90
2023/11/10 12:13:22;;;;;;;16.30;11.90;;;;;;;7.84;71.46;97729.43;106046;1287;61181;-88
2023/11/10 12:15:49;;;;;;;20.60;10.00;;;;;;;7.81;71.48;97732.28;106233;1285;60080;-88
2023/11/10 12:18:17;;;;;;;20.40;10.10;;;;;;;7.78;71.46;97740.13;106400;1288;74788;-89
2023/11/10 12:20:50;;;;;;;14.40;9.00;;;;;;;7.74;71.47;97737.03;106262;1286;75767;-88
2023/11/10 12:23:20;;;;;;;18.20;10.80;;;;;;;7.71;71.54;97733.11;106318;1286;72914;-89
2023/11/10 12:25:49;;;;;;;13.40;11.20;;;;;;;7.69;71.61;97735.44;106402;1289;61854;-92
2023/11/10 12:28:40;;;;;;;23.80;15.10;;;;;;;7.66;71.87;97734.02;106356;1286;59177;-90
2023/11/10 12:31:57;;;;;;;19.00;14.10;;;;;;;7.64;71.67;97730.10;106532;1282;72533;-88
2023/11/10 12:34:27;;;;;;;18.70;12.00;;;;;;;7.61;71.70;97727.59;106402;1290;74186;-88
2023/11/10 12:36:55;;;;;;;14.80;9.60;;;;;;;7.59;71.78;97733.95;106671;1285;72955;-87
2023/11/10 12:39:23;;;;;;;12.90;9.60;;;;;;;7.59;71.72;97732.88;106691;1285;61091;-88
2023/11/10 12:41:53;;;;;;;19.00;10.40;;;;;;;7.58;71.75;97738.44;106154;1285;60241;-87
2023/11/10 12:44:22;;;;;;;16.00;9.20;;;;;;;7.58;71.81;97731.18;106621;1285;72855;-88
2023/11/10 12:46:55;;;;;;;17.50;9.50;;;;;;;7.58;72.18;97736.67;106278;1285;74576;-88
2023/11/10 12:49:23;;;;;;;13.20;10.20;;;;;;;7.58;72.35;97736.70;106618;1283;73739;-88
2023/11/10 12:51:55;;;;;;;13.10;9.20;;;;;;;7.57;72.63;97730.31;106545;1284;61210;-87
2023/11/10 12:54:25;;;;;;;17.90;10.60;;;;;;;7.56;72.90;97728.96;106693;1283;59526;-89
2023/11/10 12:56:52;;;;;;;12.30;10.90;;;;;;;7.55;73.26;97726.94;106328;1285;73637;-87
2023/11/10 12:59:33;;;;;;;23.90;12.50;;;;;;;7.53;73.36;97725.79;106368;1283;75036;-86
2023/11/10 13:02:13;;;;;;;17.90;10.80;;;;;;;7.50;73.48;97728.30;106346;1283;70815;-87
2023/11/10 13:04:40;;;;;;;13.00;9.80;;;;;;;7.47;73.50;97715.19;106597;1283;60889;-87
2023/11/10 13:07:09;;;;;;;17.00;10.30;;;;;;;7.44;73.57;97707.56;106555;1283;60767;-85
2023/11/10 13:09:37;;;;;;;15.00;10.60;;;;;;;7.40;73.81;97707.98;106497;1283;73875;-85
2023/11/10 13:12:05;;;;;;;13.60;10.10;;;;;;;7.37;74.13;97705.18;106622;1285;74437;-83
2023/11/10 13:14:32;;;;;;;13.40;10.30;;;;;;;7.35;74.25;97700.48;106570;1283;72723;-85
2023/11/10 13:17:00;;;;;;;16.70;12.00;;;;;;;7.32;74.38;97701.21;106515;1283;62653;-81
2023/11/10 13:19:27;;;;;;;24.50;13.60;;;;;;;7.29;74.47;97704.44;106528;1283;60939;-81
2023/11/10 13:21:54;;;;;;;25.00;14.60;;;;;;;7.27;74.96;97703.85;106203;1283;72990;-82
2023/11/10 13:24:21;;;;;;;24.60;14.90;;;;;;;7.27;75.05;97698.58;106451;1286;73229;-81
2023/11/10 13:26:49;;;;;;;24.50;14.10;;;;;;;7.26;75.24;97694.32;106390;1283;72681;-83